Time;durP1;ratioP1;P1;durP2;ratioP2;P2;SDS_P1;SDS_P2;PMS_P1;PMS_P2;Temp;Humidity;BMP_temperature;BMP_pressure;BME280_temperature;BME280_humidity;BME280_pressure;Samples;Min_cycle;Max_cycle;Signal;HPM_P1;HPM_P2
2021/06/23 00:04:48;;;;;;;;;18.75;16.25;;;;;;;;8849287;40;11250;-60
2021/06/23 00:10:51;;;;;;;;;13.50;13.50;;;;;;;;8848309;40;10730;-59
2021/06/23 00:16:53;;;;;;;;;12.50;11.00;;;;;;;;8848204;40;10541;-61
2021/06/23 00:22:55;;;;;;;;;16.00;15.25;;;;;;;;8848615;40;10958;-61
2021/06/23 00:28:57;;;;;;;;;14.75;14.00;;;;;;;;8847439;40;10821;-59
2021/06/23 00:35:00;;;;;;;;;12.00;12.00;;;;;;;;8849519;40;11085;-60
2021/06/23 00:41:02;;;;;;;;;12.75;11.50;;;;;;;;8848929;40;11191;-59
2021/06/23 00:47:08;;;;;;;;;13.75;13.75;;;;;;;;8847208;40;10926;-59
2021/06/23 00:53:10;;;;;;;;;15.00;15.00;;;;;;;;8847229;40;10871;-60
2021/06/23 00:59:15;;;;;;;;;13.50;11.50;;;;;;;;8846742;40;10724;-60
2021/06/23 01:05:17;;;;;;;;;15.25;14.75;;;;;;;;8847808;40;11106;-60
2021/06/23 01:11:21;;;;;;;;;13.75;13.75;;;;;;;;8845831;40;10944;-61
2021/06/23 01:17:23;;;;;;;;;14.00;14.00;;;;;;;;8848054;40;10774;-60
2021/06/23 01:23:27;;;;;;;;;13.75;11.25;;;;;;;;8847310;40;11287;-60
2021/06/23 01:29:29;;;;;;;;;17.00;15.00;;;;;;;;8845467;40;10770;-60
2021/06/23 01:35:35;;;;;;;;;14.75;14.75;;;;;;;;8848169;40;10809;-61
2021/06/23 01:41:38;;;;;;;;;17.00;14.25;;;;;;;;8846403;40;11343;-59
2021/06/23 01:47:41;;;;;;;;;16.25;15.25;;;;;;;;8845636;40;11065;-61
2021/06/23 01:53:46;;;;;;;;;17.00;15.75;;;;;;;;8845946;40;11068;-60
2021/06/23 01:59:48;;;;;;;;;17.50;15.50;;;;;;;;8846952;40;11021;-60
2021/06/23 02:06:51;;;;;;;;;13.00;13.00;;;;;;;;8847001;40;10941;-58
2021/06/23 02:13:15;;;;;;;;;14.25;13.50;;;;;;;;8846185;40;11287;-60
2021/06/23 02:19:19;;;;;;;;;17.75;17.75;;;;;;;;8848002;40;11886;-60
2021/06/23 02:25:47;;;;;;;;;21.00;20.00;;;;;;;;8845293;40;10223;-60
2021/06/23 02:31:55;;;;;;;;;14.50;14.50;;;;;;;;8846383;40;10861;-60
2021/06/23 02:38:00;;;;;;;;;21.50;20.75;;;;;;;;8844632;40;10860;-59
2021/06/23 02:44:03;;;;;;;;;18.75;17.00;;;;;;;;8845657;40;10952;-61
2021/06/23 02:50:08;;;;;;;;;18.75;17.50;;;;;;;;8840148;40;11072;-60
2021/06/23 02:56:30;;;;;;;;;22.00;20.33;;;;;;;;8845269;40;10562;-60
2021/06/23 03:02:32;;;;;;;;;24.67;23.67;;;;;;;;8845715;40;10726;-60
2021/06/23 03:08:37;;;;;;;;;23.00;21.50;;;;;;;;8850096;40;11153;-60
2021/06/23 03:14:42;;;;;;;;;23.33;22.33;;;;;;;;8848874;40;10515;-60
2021/06/23 03:20:45;;;;;;;;;24.50;23.00;;;;;;;;8850658;40;10905;-60
2021/06/23 03:26:47;;;;;;;;;21.25;20.75;;;;;;;;8849495;40;11482;-60
2021/06/23 03:32:50;;;;;;;;;21.25;19.50;;;;;;;;8849724;40;11150;-60
2021/06/23 03:38:52;;;;;;;;;21.75;20.75;;;;;;;;8848561;40;10806;-60
2021/06/23 03:44:57;;;;;;;;;28.75;25.50;;;;;;;;8848361;40;10928;-59
2021/06/23 03:50:59;;;;;;;;;25.50;24.25;;;;;;;;8847803;40;10803;-61
2021/06/23 03:57:01;;;;;;;;;23.75;22.50;;;;;;;;8848573;40;10896;-60
2021/06/23 04:03:06;;;;;;;;;22.50;22.50;;;;;;;;9883767;23;11075;-58
2021/06/23 04:09:28;;;;;;;;;26.25;24.75;;;;;;;;8819130;40;10654;-58
2021/06/23 04:15:34;;;;;;;;;30.25;25.75;;;;;;;;8805511;40;10816;-58
2021/06/23 04:21:37;;;;;;;;;18.50;18.25;;;;;;;;8823761;40;10601;-58
2021/06/23 04:27:44;;;;;;;;;24.75;23.25;;;;;;;;8823124;40;10884;-58
2021/06/23 04:33:47;;;;;;;;;25.00;24.50;;;;;;;;8831097;40;10768;-58
2021/06/23 04:39:50;;;;;;;;;27.75;23.75;;;;;;;;8822896;40;10620;-58
2021/06/23 04:45:52;;;;;;;;;27.50;25.25;;;;;;;;8824083;40;10760;-57
2021/06/23 04:51:58;;;;;;;;;32.50;30.25;;;;;;;;8823996;40;10716;-58
2021/06/23 04:58:01;;;;;;;;;28.25;24.50;;;;;;;;8822155;40;10888;-57
2021/06/23 05:04:03;;;;;;;;;24.00;21.25;;;;;;;;8822358;40;11324;-59
2021/06/23 05:10:05;;;;;;;;;25.25;23.25;;;;;;;;8821954;40;10553;-58
2021/06/23 05:16:08;;;;;;;;;24.75;23.25;;;;;;;;8824886;40;11116;-58
2021/06/23 05:22:11;;;;;;;;;26.50;24.75;;;;;;;;8823410;40;10602;-58
2021/06/23 05:28:14;;;;;;;;;29.75;29.25;;;;;;;;8811244;40;10583;-58
2021/06/23 05:34:16;;;;;;;;;24.25;24.25;;;;;;;;8817081;40;10584;-58
2021/06/23 05:40:19;;;;;;;;;24.00;22.25;;;;;;;;8808967;40;10580;-58
2021/06/23 05:46:21;;;;;;;;;28.75;28.25;;;;;;;;8820778;40;10507;-58
2021/06/23 05:52:23;;;;;;;;;30.00;26.00;;;;;;;;8820380;40;10624;-59
2021/06/23 05:58:25;;;;;;;;;23.25;22.25;;;;;;;;8819549;40;10501;-59
2021/06/23 06:04:27;;;;;;;;;18.50;18.50;;;;;;;;8817220;40;10605;-56
2021/06/23 06:10:29;;;;;;;;;25.25;22.50;;;;;;;;8816777;40;10697;-57
2021/06/23 06:16:35;;;;;;;;;19.25;17.25;;;;;;;;8815310;40;10471;-58
2021/06/23 06:22:38;;;;;;;;;24.00;22.25;;;;;;;;8808823;40;10501;-58
2021/06/23 06:28:40;;;;;;;;;34.50;34.50;;;;;;;;8807897;40;10594;-58
2021/06/23 06:34:42;;;;;;;;;37.00;33.25;;;;;;;;8808139;40;10660;-57
2021/06/23 06:40:43;;;;;;;;;32.75;28.50;;;;;;;;8810765;40;10546;-57
2021/06/23 06:46:47;;;;;;;;;36.25;34.25;;;;;;;;8807856;40;11067;-57
2021/06/23 06:52:50;;;;;;;;;14.00;11.25;;;;;;;;8814468;40;10436;-56
2021/06/23 06:58:53;;;;;;;;;15.00;14.75;;;;;;;;8812414;40;10506;-56
2021/06/23 07:04:55;;;;;;;;;11.75;11.75;;;;;;;;8815908;40;10455;-61
2021/06/23 07:10:57;;;;;;;;;12.75;12.75;;;;;;;;8812856;40;11049;-57
2021/06/23 07:17:00;;;;;;;;;12.00;11.50;;;;;;;;8811179;40;10436;-56
2021/06/23 07:23:02;;;;;;;;;13.25;13.25;;;;;;;;8813584;40;10718;-57
2021/06/23 07:29:06;;;;;;;;;19.00;16.00;;;;;;;;8813330;40;10481;-58
2021/06/23 07:37:57;;;;;;;;;12.00;12.00;;;;;;;;8928899;39;17453;-57
2021/06/23 07:43:59;;;;;;;;;21.25;19.50;;;;;;;;8951590;39;10608;-58
2021/06/23 07:50:03;;;;;;;;;17.00;16.50;;;;;;;;8961748;39;10397;-58
2021/06/23 07:56:10;;;;;;;;;17.75;14.00;;;;;;;;8958740;39;10451;-56
2021/06/23 08:53:27;;;;;;;;;12.25;10.00;;;;;;;;8986546;39;17362;-59
2021/06/23 08:59:29;;;;;;;;;13.25;11.25;;;;;;;;9017585;39;10896;-59
2021/06/23 09:05:51;;;;;;;;;11.75;11.75;;;;;;;;9011215;39;10238;-60
2021/06/23 09:11:58;;;;;;;;;14.75;13.75;;;;;;;;9002070;39;10379;-60
2021/06/23 09:18:13;;;;;;;;;14.75;13.00;;;;;;;;8999640;39;10386;-59
2021/06/23 09:24:17;;;;;;;;;14.50;14.50;;;;;;;;9001461;39;10329;-62
2021/06/23 09:30:30;;;;;;;;;12.25;10.50;;;;;;;;9008238;39;10250;-60
2021/06/23 09:36:32;;;;;;;;;15.75;13.00;;;;;;;;9012185;39;10343;-59
2021/06/23 09:42:45;;;;;;;;;13.25;11.75;;;;;;;;9007685;39;10273;-60
2021/06/23 09:48:48;;;;;;;;;15.25;12.50;;;;;;;;9001457;39;10250;-58
2021/06/23 09:54:57;;;;;;;;;13.00;13.00;;;;;;;;9007154;39;10306;-59
2021/06/23 10:01:09;;;;;;;;;10.50;8.00;;;;;;;;8999146;39;10417;-58
2021/06/23 10:07:40;;;;;;;;;14.75;13.00;;;;;;;;8990179;39;10280;-59
2021/06/23 10:13:42;;;;;;;;;15.00;14.50;;;;;;;;8991011;39;10341;-59
2021/06/23 10:19:49;;;;;;;;;17.50;14.00;;;;;;;;8984617;39;10308;-60
2021/06/23 10:25:52;;;;;;;;;11.75;11.50;;;;;;;;8999178;39;11082;-60
2021/06/23 10:32:07;;;;;;;;;13.50;13.50;;;;;;;;8999612;39;10447;-61
2021/06/23 10:38:17;;;;;;;;;13.75;13.75;;;;;;;;8998720;39;10499;-60
2021/06/23 10:44:31;;;;;;;;;16.50;15.25;;;;;;;;8988791;39;10352;-59
2021/06/23 10:50:35;;;;;;;;;15.50;13.00;;;;;;;;8997232;39;11353;-60
2021/06/23 10:56:51;;;;;;;;;15.75;14.75;;;;;;;;8991394;39;10292;-60
2021/06/23 11:03:19;;;;;;;;;17.25;17.00;;;;;;;;9001696;39;10553;-59
2021/06/23 11:09:32;;;;;;;;;12.50;12.50;;;;;;;;8993536;39;12456;-59
2021/06/23 11:15:40;;;;;;;;;15.75;13.50;;;;;;;;8986074;39;10387;-61
2021/06/23 11:21:46;;;;;;;;;17.25;17.00;;;;;;;;8978088;39;10986;-61
2021/06/23 11:28:08;;;;;;;;;13.75;13.25;;;;;;;;8982299;39;10336;-58
2021/06/23 11:34:11;;;;;;;;;16.25;14.50;;;;;;;;8969589;39;11065;-62
2021/06/23 11:40:15;;;;;;;;;18.50;18.00;;;;;;;;8968723;39;10455;-59
2021/06/23 11:46:18;;;;;;;;;19.00;18.00;;;;;;;;8971030;39;10607;-58
2021/06/23 11:52:20;;;;;;;;;20.00;18.00;;;;;;;;8972642;39;10846;-61
2021/06/23 11:58:22;;;;;;;;;17.50;17.00;;;;;;;;8972344;39;10532;-60
2021/06/23 12:04:26;;;;;;;;;15.25;14.00;;;;;;;;8997251;39;10299;-59
2021/06/23 12:10:30;;;;;;;;;28.25;20.50;;;;;;;;8983188;39;10328;-60
2021/06/23 12:16:33;;;;;;;;;18.75;17.75;;;;;;;;8980195;39;10382;-60
2021/06/23 12:22:38;;;;;;;;;35.75;32.00;;;;;;;;8983449;39;10404;-60
2021/06/23 12:28:40;;;;;;;;;17.75;17.75;;;;;;;;8973641;39;10338;-59
2021/06/23 12:34:42;;;;;;;;;22.50;17.25;;;;;;;;8993043;39;10356;-61
2021/06/23 12:40:45;;;;;;;;;16.75;15.00;;;;;;;;8980628;39;10379;-60
2021/06/23 12:46:48;;;;;;;;;24.00;17.50;;;;;;;;8990090;39;10452;-60
2021/06/23 12:52:51;;;;;;;;;16.50;14.50;;;;;;;;8995960;39;10278;-60
2021/06/23 12:58:53;;;;;;;;;21.25;20.75;;;;;;;;8992094;39;10363;-58
2021/06/23 13:04:56;;;;;;;;;20.50;18.25;;;;;;;;8994049;39;10354;-61
2021/06/23 13:10:58;;;;;;;;;23.25;19.25;;;;;;;;8987190;39;10328;-57
2021/06/23 13:17:00;;;;;;;;;21.25;18.50;;;;;;;;8983338;39;10490;-58
2021/06/23 13:23:02;;;;;;;;;27.75;24.00;;;;;;;;8993944;39;10360;-59
2021/06/23 13:29:05;;;;;;;;;21.75;18.75;;;;;;;;8990489;39;10325;-58
2021/06/23 13:35:07;;;;;;;;;22.75;22.00;;;;;;;;8985754;39;10459;-59
2021/06/23 13:41:09;;;;;;;;;21.25;21.00;;;;;;;;8993892;39;10355;-60
2021/06/23 13:47:11;;;;;;;;;21.75;21.75;;;;;;;;8979935;39;10921;-61
2021/06/23 13:53:16;;;;;;;;;29.00;27.00;;;;;;;;8998459;39;10357;-60
2021/06/23 13:59:18;;;;;;;;;23.00;20.00;;;;;;;;8982216;39;10379;-61
2021/06/23 14:05:20;;;;;;;;;21.50;21.50;;;;;;;;8986179;39;10338;-58
2021/06/23 14:11:23;;;;;;;;;21.25;21.25;;;;;;;;8990389;39;10391;-61
2021/06/23 14:17:25;;;;;;;;;22.00;20.00;;;;;;;;8990195;39;10261;-58
2021/06/23 14:23:27;;;;;;;;;26.00;24.25;;;;;;;;8983876;39;10412;-58
2021/06/23 14:29:30;;;;;;;;;21.50;18.00;;;;;;;;8976200;39;10382;-60
2021/06/23 14:35:32;;;;;;;;;27.75;26.25;;;;;;;;8982699;39;10381;-57
2021/06/23 14:41:34;;;;;;;;;24.50;24.50;;;;;;;;8998135;39;10346;-59
2021/06/23 14:47:36;;;;;;;;;19.25;19.25;;;;;;;;8998414;39;10324;-58
2021/06/23 14:53:42;;;;;;;;;26.00;23.75;;;;;;;;9002826;39;10338;-60
2021/06/23 14:59:44;;;;;;;;;22.25;22.25;;;;;;;;8982752;39;10847;-60
2021/06/23 15:05:46;;;;;;;;;22.00;21.00;;;;;;;;8976072;39;10317;-58
2021/06/23 15:11:48;;;;;;;;;27.00;22.75;;;;;;;;8975051;39;10550;-59
2021/06/23 15:17:50;;;;;;;;;25.50;24.50;;;;;;;;8982951;39;10331;-61
2021/06/23 15:23:52;;;;;;;;;31.25;30.50;;;;;;;;8986037;39;10402;-59
2021/06/23 15:29:54;;;;;;;;;25.50;23.25;;;;;;;;8972242;39;10519;-59
2021/06/23 15:35:56;;;;;;;;;25.50;23.50;;;;;;;;8972020;39;11011;-60
2021/06/23 15:42:00;;;;;;;;;22.50;20.50;;;;;;;;8974702;39;10359;-60
2021/06/23 15:48:04;;;;;;;;;25.50;22.00;;;;;;;;8974902;39;10415;-59
2021/06/23 15:54:06;;;;;;;;;25.75;23.50;;;;;;;;8974644;39;10406;-62
2021/06/23 16:00:11;;;;;;;;;25.25;22.50;;;;;;;;8982462;39;10290;-60
2021/06/23 16:06:13;;;;;;;;;22.50;20.25;;;;;;;;8990698;39;10282;-59
2021/06/23 16:12:16;;;;;;;;;23.75;23.25;;;;;;;;8977492;39;10412;-60
2021/06/23 16:18:19;;;;;;;;;19.75;19.75;;;;;;;;8975643;39;10338;-60
2021/06/23 16:24:21;;;;;;;;;25.00;22.25;;;;;;;;8974491;39;10354;-61
2021/06/23 16:30:24;;;;;;;;;24.75;21.75;;;;;;;;8974322;39;10310;-62
2021/06/23 16:36:27;;;;;;;;;23.75;23.50;;;;;;;;8996058;39;10578;-58
2021/06/23 16:42:29;;;;;;;;;27.25;26.50;;;;;;;;9000116;39;10427;-57
2021/06/23 16:48:31;;;;;;;;;27.00;24.75;;;;;;;;9000220;39;10334;-60
2021/06/23 16:54:33;;;;;;;;;33.25;29.50;;;;;;;;8998547;39;10450;-59
2021/06/23 17:00:35;;;;;;;;;39.25;31.25;;;;;;;;8999098;39;10526;-59
2021/06/23 17:06:43;;;;;;;;;29.25;27.00;;;;;;;;8998728;39;10357;-59
2021/06/23 17:12:45;;;;;;;;;31.75;28.00;;;;;;;;9000377;39;10397;-59
2021/06/23 17:18:47;;;;;;;;;28.75;28.75;;;;;;;;9002632;39;10434;-59
2021/06/23 17:25:09;;;;;;;;;27.25;25.00;;;;;;;;9002820;39;10252;-59
2021/06/23 17:31:12;;;;;;;;;33.75;30.00;;;;;;;;9002512;39;10357;-59
2021/06/23 17:37:14;;;;;;;;;24.00;24.00;;;;;;;;9002048;39;10846;-59
2021/06/23 17:43:16;;;;;;;;;28.00;24.75;;;;;;;;9001482;39;10389;-60
2021/06/23 17:49:18;;;;;;;;;37.00;36.75;;;;;;;;8991991;39;10342;-60
2021/06/23 17:55:34;;;;;;;;;29.50;28.50;;;;;;;;9001802;39;10866;-59
2021/06/23 18:01:36;;;;;;;;;30.50;27.75;;;;;;;;9001352;39;10597;-58
2021/06/23 18:07:38;;;;;;;;;30.50;27.50;;;;;;;;9001476;39;10323;-60
2021/06/23 18:13:40;;;;;;;;;27.25;23.75;;;;;;;;9001690;39;10308;-58
2021/06/23 18:19:42;;;;;;;;;27.00;24.25;;;;;;;;9001509;39;10376;-59
2021/06/23 18:25:44;;;;;;;;;32.50;31.75;;;;;;;;9001766;39;10515;-59
2021/06/23 18:31:46;;;;;;;;;36.50;35.50;;;;;;;;9002227;39;10344;-59
2021/06/23 18:37:48;;;;;;;;;44.75;35.75;;;;;;;;9000412;39;11563;-60
2021/06/23 18:43:50;;;;;;;;;31.25;30.00;;;;;;;;9002343;39;10287;-58
2021/06/23 18:49:52;;;;;;;;;32.50;29.00;;;;;;;;8987147;39;10406;-58
2021/06/23 18:55:58;;;;;;;;;29.75;29.75;;;;;;;;8975466;39;10339;-58
2021/06/23 19:02:00;;;;;;;;;35.75;32.00;;;;;;;;8994667;39;10459;-58
2021/06/23 19:08:03;;;;;;;;;38.75;37.50;;;;;;;;9000717;39;10370;-59
2021/06/23 19:14:08;;;;;;;;;42.75;37.25;;;;;;;;9000822;39;10349;-58
2021/06/23 19:20:10;;;;;;;;;34.25;30.25;;;;;;;;9001509;39;10278;-59
2021/06/23 19:26:14;;;;;;;;;38.00;37.75;;;;;;;;8999665;39;10395;-59
2021/06/23 19:32:19;;;;;;;;;38.75;36.75;;;;;;;;8999789;39;10415;-58
2021/06/23 19:38:21;;;;;;;;;35.25;30.00;;;;;;;;8990720;39;10365;-59
2021/06/23 19:44:23;;;;;;;;;37.25;37.00;;;;;;;;8982663;39;10409;-58
2021/06/23 19:50:25;;;;;;;;;39.50;36.75;;;;;;;;8974274;39;10275;-59
2021/06/23 19:56:28;;;;;;;;;38.00;38.00;;;;;;;;8998340;39;10319;-58
2021/06/23 20:02:30;;;;;;;;;37.75;37.75;;;;;;;;8999696;39;10446;-59
2021/06/23 20:08:32;;;;;;;;;41.75;36.25;;;;;;;;9000114;39;10484;-58
2021/06/23 20:14:34;;;;;;;;;38.75;36.75;;;;;;;;8999642;39;10409;-59
2021/06/23 20:20:36;;;;;;;;;41.50;37.50;;;;;;;;9000667;39;10435;-59
2021/06/23 20:26:39;;;;;;;;;46.00;41.25;;;;;;;;9000426;39;10399;-58
2021/06/23 20:32:41;;;;;;;;;44.75;39.25;;;;;;;;8999759;39;10429;-60
2021/06/23 20:38:44;;;;;;;;;43.50;39.75;;;;;;;;8974908;39;10457;-59
2021/06/23 20:44:46;;;;;;;;;45.75;41.25;;;;;;;;8963945;39;10779;-59
2021/06/23 20:50:48;;;;;;;;;44.25;41.25;;;;;;;;8975167;39;10454;-59
2021/06/23 20:56:49;;;;;;;;;41.75;36.25;;;;;;;;8973758;39;10972;-59
2021/06/23 21:02:54;;;;;;;;;41.00;38.25;;;;;;;;8973546;39;10385;-58
2021/06/23 21:08:57;;;;;;;;;48.25;41.25;;;;;;;;8997922;39;10480;-59
2021/06/23 21:15:06;;;;;;;;;42.75;39.75;;;;;;;;8998756;39;10627;-59
2021/06/23 21:21:10;;;;;;;;;40.00;36.25;;;;;;;;8999224;39;10650;-60
2021/06/23 21:27:20;;;;;;;;;32.75;31.75;;;;;;;;8997049;39;10562;-60
2021/06/23 21:33:27;;;;;;;;;24.75;23.00;;;;;;;;8998120;39;10289;-59
2021/06/23 21:39:29;;;;;;;;;32.50;31.25;;;;;;;;8998587;39;11177;-60
2021/06/23 21:45:32;;;;;;;;;30.25;28.75;;;;;;;;8998317;39;10289;-60
2021/06/23 21:51:35;;;;;;;;;33.00;28.00;;;;;;;;8972985;39;10520;-60
2021/06/23 21:57:39;;;;;;;;;23.00;23.00;;;;;;;;8974124;39;10822;-59
2021/06/23 22:03:50;;;;;;;;;26.25;21.75;;;;;;;;8976628;39;10376;-58
2021/06/23 22:09:54;;;;;;;;;19.50;19.50;;;;;;;;8976990;39;10557;-59
2021/06/23 22:16:00;;;;;;;;;18.25;17.50;;;;;;;;8976182;39;10487;-58
2021/06/23 22:22:22;;;;;;;;;22.50;22.50;;;;;;;;8976279;39;10457;-60
2021/06/23 22:28:26;;;;;;;;;19.00;16.00;;;;;;;;8976249;39;10370;-58
2021/06/23 22:34:32;;;;;;;;;20.50;20.50;;;;;;;;8976581;39;10343;-59
2021/06/23 22:40:45;;;;;;;;;19.50;17.75;;;;;;;;8976592;39;10294;-58
2021/06/23 22:53:15;;;;;;;;;25.00;24.00;;;;;;;;8977104;39;10310;-58
2021/06/23 22:59:18;;;;;;;;;26.75;23.00;;;;;;;;8975806;39;10376;-58
2021/06/23 23:05:22;;;;;;;;;22.50;22.00;;;;;;;;8973519;39;10319;-58
2021/06/23 23:11:24;;;;;;;;;22.00;21.00;;;;;;;;8976103;39;10615;-57
2021/06/23 23:17:28;;;;;;;;;23.75;23.75;;;;;;;;8975610;39;10510;-58
2021/06/23 23:23:30;;;;;;;;;24.50;23.75;;;;;;;;8975369;39;10270;-58
2021/06/23 23:29:32;;;;;;;;;24.00;21.50;;;;;;;;8975238;39;10399;-58
2021/06/23 23:35:34;;;;;;;;;23.75;23.75;;;;;;;;8981346;39;10958;-58
2021/06/23 23:41:36;;;;;;;;;24.25;24.25;;;;;;;;9000554;39;10465;-58
2021/06/23 23:47:37;;;;;;;;;25.75;23.75;;;;;;;;9000235;39;10305;-57
2021/06/23 23:53:39;;;;;;;;;19.75;19.75;;;;;;;;8996339;39;10413;-59
2021/06/23 23:59:41;;;;;;;;;25.25;22.25;;;;;;;;8974337;39;11018;-58
